createdAt,value
2019-04-14T00:02:03.528Z,22.73
2019-04-14T00:04:38.627Z,22.77
2019-04-14T00:07:14.624Z,23.13
2019-04-14T00:09:52.185Z,21.00
2019-04-14T00:12:27.338Z,22.27
2019-04-14T00:14:57.572Z,23.17
2019-04-14T00:17:28.388Z,21.80
2019-04-14T00:20:03.238Z,21.43
2019-04-14T00:22:40.228Z,22.87
2019-04-14T00:25:10.768Z,23.00
2019-04-14T00:27:41.009Z,21.57
2019-04-14T00:30:16.529Z,23.70
2019-04-14T00:32:51.572Z,23.00
2019-04-14T00:35:47.183Z,23.33
2019-04-14T00:38:30.255Z,22.00
2019-04-14T00:41:34.373Z,22.50
2019-04-14T00:44:21.596Z,23.80
2019-04-14T00:47:09.760Z,23.40
2019-04-14T00:49:48.744Z,23.23
2019-04-14T00:52:21.210Z,21.17
2019-04-14T00:54:58.687Z,21.47
2019-04-14T00:57:29.039Z,23.23
2019-04-14T00:59:59.524Z,22.20
2019-04-14T01:02:30.315Z,22.43
2019-04-14T01:05:06.801Z,22.83
2019-04-14T01:07:43.980Z,22.73
2019-04-14T01:10:21.302Z,24.47
2019-04-14T01:12:51.766Z,23.33
2019-04-14T01:15:22.237Z,23.23
2019-04-14T01:18:01.490Z,23.33
2019-04-14T01:20:31.821Z,22.77
2019-04-14T01:23:02.043Z,23.67
2019-04-14T01:25:39.119Z,22.77
2019-04-14T01:28:07.335Z,23.47
2019-04-14T01:30:37.296Z,23.50
2019-04-14T01:33:11.835Z,23.63
2019-04-14T01:35:42.182Z,23.53
2019-04-14T01:38:12.570Z,23.47
2019-04-14T01:40:44.600Z,23.20
2019-04-14T01:43:14.747Z,23.83
2019-04-14T01:46:04.001Z,24.83
2019-04-14T01:48:23.608Z,24.43
2019-04-14T01:51:11.329Z,24.07
2019-04-14T01:54:21.452Z,23.83
2019-04-14T01:57:11.566Z,23.13
2019-04-14T01:59:41.567Z,23.07
2019-04-14T02:02:14.108Z,24.33
2019-04-14T02:04:44.952Z,24.53
2019-04-14T02:07:17.578Z,23.30
2019-04-14T02:09:53.193Z,24.30
2019-04-14T02:12:27.790Z,23.80
2019-04-14T02:14:58.964Z,24.00
2019-04-14T02:17:37.113Z,22.87
2019-04-14T02:20:07.836Z,23.00
2019-04-14T02:22:37.663Z,22.67
2019-04-14T02:25:07.845Z,23.80
2019-04-14T02:27:45.003Z,23.37
2019-04-14T02:30:24.786Z,22.77
2019-04-14T02:33:23.959Z,23.03
2019-04-14T02:35:54.965Z,22.73
2019-04-14T02:38:34.162Z,22.47
2019-04-14T02:41:11.014Z,23.50
2019-04-14T02:46:10.027Z,23.17
2019-04-14T02:48:52.535Z,24.63
2019-04-14T02:59:03.701Z,23.70
2019-04-14T03:04:15.255Z,24.37
2019-04-14T03:06:50.394Z,24.73
2019-04-14T03:09:38.581Z,23.97
2019-04-14T03:11:45.913Z,24.73
2019-04-14T03:14:32.364Z,25.70
2019-04-14T03:17:26.278Z,24.57
2019-04-14T03:25:26.376Z,24.30
2019-04-14T03:27:58.981Z,24.87
2019-04-14T03:31:11.970Z,23.93
2019-04-14T03:33:32.118Z,24.07
2019-04-14T03:38:24.788Z,25.03
2019-04-14T03:41:05.363Z,24.00
2019-04-14T03:43:30.844Z,25.07
2019-04-14T03:46:18.013Z,25.47
2019-04-14T03:56:33.461Z,25.67
2019-04-14T03:59:04.140Z,26.10
2019-04-14T04:01:34.794Z,24.87
2019-04-14T04:04:14.048Z,25.47
2019-04-14T04:06:44.281Z,25.80
2019-04-14T04:09:14.940Z,27.10
2019-04-14T04:11:52.593Z,27.73
2019-04-14T04:14:22.447Z,29.23
2019-04-14T04:16:57.481Z,29.00
2019-04-14T04:19:38.313Z,29.90
2019-04-14T04:22:26.020Z,29.30
2019-04-14T04:25:13.880Z,31.10
2019-04-14T04:28:06.147Z,31.80
2019-04-14T04:30:51.610Z,32.10
2019-04-14T04:33:30.596Z,32.63
2019-04-14T04:36:03.219Z,32.43
2019-04-14T04:38:44.288Z,33.77
2019-04-14T04:41:14.728Z,32.93
2019-04-14T04:43:45.163Z,34.80
2019-04-14T04:46:15.591Z,35.20
2019-04-14T04:48:58.011Z,32.67
2019-04-14T04:51:16.551Z,35.47
2019-04-14T04:53:48.715Z,33.70
2019-04-14T04:56:18.658Z,36.87
2019-04-14T04:58:48.569Z,36.43
2019-04-14T05:01:18.826Z,36.10
2019-04-14T05:03:49.287Z,37.27
2019-04-14T05:07:09.781Z,35.40
2019-04-14T05:10:08.923Z,36.10
2019-04-14T05:12:45.719Z,37.37
2019-04-14T05:15:34.300Z,37.37
2019-04-14T05:18:04.941Z,37.87
2019-04-14T05:20:35.613Z,38.20
2019-04-14T05:23:05.951Z,36.23
2019-04-14T05:25:36.572Z,36.07
2019-04-14T05:28:06.957Z,39.40
2019-04-14T05:30:37.215Z,37.33
2019-04-14T05:33:07.460Z,36.33
2019-04-14T05:35:38.029Z,37.20
2019-04-14T05:38:08.431Z,37.53
2019-04-14T05:40:38.604Z,36.40
2019-04-14T05:43:08.870Z,36.30
2019-04-14T05:45:39.521Z,37.27
2019-04-14T05:48:09.724Z,37.77
2019-04-14T05:50:40.091Z,36.83
2019-04-14T05:53:10.987Z,35.97
2019-04-14T05:55:41.589Z,39.40
2019-04-14T05:58:12.180Z,36.23
2019-04-14T06:00:44.836Z,36.63
2019-04-14T06:03:14.634Z,36.93
2019-04-14T06:05:45.029Z,36.53
2019-04-14T06:08:14.799Z,34.43
2019-04-14T06:10:44.329Z,34.60
2019-04-14T06:13:14.114Z,33.87
2019-04-14T06:15:43.629Z,33.50
2019-04-14T06:18:13.184Z,34.47
2019-04-14T06:20:42.723Z,34.67
2019-04-14T06:23:12.249Z,34.80
2019-04-14T06:25:41.905Z,33.70
2019-04-14T06:28:11.644Z,34.53
2019-04-14T06:31:09.466Z,33.10
2019-04-14T06:34:01.199Z,32.43
2019-04-14T06:36:52.447Z,30.30
2019-04-14T06:39:25.102Z,31.87
2019-04-14T06:41:54.704Z,31.90
2019-04-14T06:44:24.425Z,30.50
2019-04-14T06:46:53.931Z,32.00
2019-04-14T06:49:23.462Z,32.37
2019-04-14T06:52:00.352Z,32.90
2019-04-14T06:54:33.854Z,32.73
2019-04-14T07:07:29.671Z,31.40
2019-04-14T07:09:59.222Z,32.97
2019-04-14T07:12:28.816Z,30.97
2019-04-14T07:14:59.143Z,32.20
2019-04-14T07:17:32.017Z,34.57
2019-04-14T07:20:02.606Z,31.00
2019-04-14T07:22:32.466Z,32.93
2019-04-14T07:25:02.127Z,31.17
2019-04-14T07:27:31.946Z,31.50
2019-04-14T07:30:11.270Z,31.53
2019-04-14T07:33:02.474Z,30.07
2019-04-14T07:35:49.589Z,29.80
2019-04-14T07:38:37.986Z,29.50
2019-04-14T07:41:12.219Z,30.37
2019-04-14T07:44:03.442Z,29.97
2019-04-14T07:46:41.339Z,27.03
2019-04-14T07:49:41.190Z,28.77
2019-04-14T07:52:27.132Z,28.17
2019-04-14T07:55:08.220Z,27.63
2019-04-14T07:57:54.796Z,26.10
2019-04-14T08:00:50.370Z,25.57
2019-04-14T08:03:48.413Z,25.83
2019-04-14T08:06:18.927Z,26.07
2019-04-14T08:08:53.177Z,24.87
2019-04-14T08:11:26.491Z,23.83
2019-04-14T08:13:59.238Z,23.10
2019-04-14T08:16:32.209Z,22.73
2019-04-14T08:19:03.467Z,22.70
2019-04-14T08:21:33.792Z,22.60
2019-04-14T08:24:07.237Z,20.67
2019-04-14T08:26:37.967Z,21.73
2019-04-14T08:29:10.989Z,21.60
2019-04-14T08:31:40.583Z,21.17
2019-04-14T08:34:10.144Z,21.50
2019-04-14T08:36:44.390Z,22.23
2019-04-14T08:39:14.605Z,21.43
2019-04-14T08:41:53.937Z,20.60
2019-04-14T08:44:40.663Z,21.20
2019-04-14T08:47:22.210Z,21.47
2019-04-14T08:49:59.161Z,21.57
2019-04-14T08:52:51.368Z,20.57
2019-04-14T08:55:42.290Z,21.43
2019-04-14T08:58:43.667Z,21.33
2019-04-14T09:01:24.287Z,19.37
2019-04-14T09:04:28.121Z,20.17
2019-04-14T09:07:19.960Z,18.60
2019-04-14T09:09:58.490Z,18.80
2019-04-14T09:12:33.092Z,19.63
2019-04-14T09:15:06.629Z,19.23
2019-04-14T09:17:37.291Z,18.60
2019-04-14T09:20:08.027Z,20.07
2019-04-14T09:22:38.956Z,19.67
2019-04-14T09:25:11.836Z,20.23
2019-04-14T09:27:45.291Z,18.77
2019-04-14T09:30:21.437Z,18.97
2019-04-14T09:32:50.947Z,18.13
2019-04-14T09:35:20.663Z,18.10
2019-04-14T09:37:52.143Z,18.30
2019-04-14T09:40:22.011Z,16.43
2019-04-14T09:42:51.550Z,17.13
2019-04-14T09:45:21.248Z,16.77
2019-04-14T09:47:53.577Z,15.53
2019-04-14T09:50:23.707Z,15.17
2019-04-14T09:52:58.794Z,15.73
2019-04-14T09:55:30.672Z,15.73
2019-04-14T09:58:00.314Z,16.67
2019-04-14T10:00:30.228Z,15.40
2019-04-14T10:03:01.947Z,15.60
2019-04-14T10:05:32.652Z,16.33
2019-04-14T10:08:05.043Z,15.47
2019-04-14T10:10:40.415Z,15.10
2019-04-14T10:13:13.719Z,15.10
2019-04-14T10:15:43.728Z,16.40
2019-04-14T10:18:14.052Z,14.83
2019-04-14T10:20:44.284Z,16.17
2019-04-14T10:23:13.963Z,15.73
2019-04-14T10:25:43.565Z,15.20
2019-04-14T10:28:13.836Z,15.17
2019-04-14T10:30:44.102Z,15.37
2019-04-14T10:33:14.701Z,15.23
2019-04-14T10:35:45.843Z,15.37
2019-04-14T10:38:16.869Z,14.53
2019-04-14T10:40:47.754Z,14.53
2019-04-14T10:43:19.213Z,14.37
2019-04-14T10:45:52.313Z,14.93
2019-04-14T10:48:23.013Z,14.93
2019-04-14T10:50:53.582Z,14.80
2019-04-14T10:53:29.615Z,14.17
2019-04-14T10:56:03.288Z,15.33
2019-04-14T10:58:34.505Z,14.73
2019-04-14T11:01:04.241Z,14.53
2019-04-14T11:03:34.283Z,13.57
2019-04-14T11:06:08.752Z,13.27
2019-04-14T11:08:38.528Z,14.13
2019-04-14T11:11:08.164Z,13.80
2019-04-14T11:13:39.340Z,13.83
2019-04-14T11:16:08.987Z,14.30
2019-04-14T11:18:38.873Z,14.73
2019-04-14T11:21:08.731Z,14.47
2019-04-14T11:23:38.898Z,15.47
2019-04-14T11:26:10.451Z,15.80
2019-04-14T11:28:40.134Z,15.67
2019-04-14T11:31:11.398Z,15.18
2019-04-14T11:33:59.292Z,15.95
2019-04-14T11:37:03.093Z,16.07
2019-04-14T11:39:32.877Z,14.53
2019-04-14T11:42:06.594Z,15.63
2019-04-14T11:44:36.222Z,15.10
2019-04-14T11:47:10.454Z,14.40
2019-04-14T11:49:40.286Z,14.77
2019-04-14T11:52:11.337Z,14.80
2019-04-14T11:54:41.104Z,14.67
2019-04-14T11:57:10.828Z,14.97
2019-04-14T11:59:47.812Z,15.13
2019-04-14T12:02:22.840Z,14.80
2019-04-14T12:05:01.858Z,14.40
2019-04-14T12:07:48.475Z,14.90
2019-04-14T12:10:21.508Z,16.03
2019-04-14T12:12:51.092Z,15.43
2019-04-14T12:15:20.759Z,16.00
2019-04-14T12:18:00.884Z,15.70
2019-04-14T12:20:35.787Z,14.33
2019-04-14T12:23:05.371Z,14.27
2019-04-14T12:25:35.300Z,14.67
2019-04-14T12:28:04.884Z,15.43
2019-04-14T12:30:35.539Z,13.87
2019-04-14T12:33:05.613Z,14.40
2019-04-14T12:35:35.453Z,14.87
2019-04-14T12:38:05.100Z,14.70
2019-04-14T12:40:35.136Z,15.50
2019-04-14T12:43:08.826Z,13.53
2019-04-14T12:46:06.073Z,15.27
2019-04-14T12:48:59.998Z,14.00
2019-04-14T12:51:34.853Z,13.10
2019-04-14T12:54:04.606Z,14.87
2019-04-14T12:56:34.225Z,13.97
2019-04-14T12:59:23.474Z,14.33
2019-04-14T13:02:11.404Z,13.90
2019-04-14T13:04:41.397Z,14.53
2019-04-14T13:07:11.004Z,12.82
2019-04-14T13:09:40.742Z,13.90
2019-04-14T13:12:12.763Z,13.40
2019-04-14T13:14:42.458Z,13.37
2019-04-14T13:17:11.988Z,12.90
2019-04-14T13:19:41.835Z,13.40
2019-04-14T13:22:13.990Z,13.57
2019-04-14T13:24:43.769Z,11.50
2019-04-14T13:27:13.627Z,12.07
2019-04-14T13:29:43.409Z,12.17
2019-04-14T13:32:13.039Z,11.93
2019-04-14T13:34:42.830Z,11.93
2019-04-14T13:37:12.391Z,13.33
2019-04-14T13:39:45.071Z,13.08
2019-04-14T13:42:14.744Z,12.70
2019-04-14T13:44:44.394Z,12.40
2019-04-14T13:47:14.018Z,12.13
2019-04-14T13:49:43.796Z,12.00
2019-04-14T13:52:14.511Z,12.27
2019-04-14T13:54:44.996Z,12.97
2019-04-14T13:57:14.766Z,12.87
2019-04-14T13:59:46.689Z,12.53
2019-04-14T14:02:22.033Z,12.53
2019-04-14T14:04:51.849Z,12.60
2019-04-14T14:07:21.769Z,12.37
2019-04-14T14:09:57.203Z,11.73
2019-04-14T14:12:38.290Z,11.37
2019-04-14T14:15:29.238Z,11.70
2019-04-14T14:18:27.056Z,11.97
2019-04-14T14:21:28.978Z,11.97
2019-04-14T14:24:13.076Z,11.60
2019-04-14T14:26:43.381Z,11.80
2019-04-14T14:29:13.040Z,12.63
2019-04-14T14:31:47.853Z,11.83
2019-04-14T14:34:24.663Z,11.40
2019-04-14T14:36:54.218Z,11.80
2019-04-14T14:39:23.927Z,11.23
2019-04-14T14:41:53.828Z,11.87
2019-04-14T14:44:25.682Z,12.07
2019-04-14T14:47:17.622Z,12.37
2019-04-14T14:50:21.775Z,11.67
2019-04-14T14:52:51.616Z,12.00
2019-04-14T14:55:21.221Z,11.73
2019-04-14T14:57:51.019Z,11.80
2019-04-14T15:00:33.222Z,12.03
2019-04-14T15:03:02.971Z,11.20
2019-04-14T15:05:34.343Z,12.27
2019-04-14T15:08:04.015Z,11.80
2019-04-14T15:10:33.811Z,12.60
2019-04-14T15:13:03.464Z,12.33
2019-04-14T15:15:33.128Z,12.37
2019-04-14T15:18:03.138Z,11.57
2019-04-14T15:20:36.917Z,11.73
2019-04-14T15:23:09.272Z,11.37
2019-04-14T15:25:38.902Z,11.23
2019-04-14T15:28:09.669Z,11.47
2019-04-14T15:30:40.151Z,12.00
2019-04-14T15:33:09.994Z,11.30
2019-04-14T15:35:40.050Z,11.50
2019-04-14T15:38:09.725Z,11.60
2019-04-14T15:40:41.087Z,10.90
2019-04-14T15:43:15.400Z,11.10
2019-04-14T15:45:45.611Z,12.43
2019-04-14T15:48:17.007Z,12.00
2019-04-14T15:50:47.106Z,12.07
2019-04-14T15:53:19.716Z,11.90
2019-04-14T15:55:49.340Z,11.33
2019-04-14T15:58:37.532Z,11.90
2019-04-14T16:01:30.179Z,11.70
2019-04-14T16:04:25.624Z,11.50
2019-04-14T16:07:20.776Z,10.93
2019-04-14T16:10:01.522Z,11.00
2019-04-14T16:12:51.397Z,12.07
2019-04-14T16:15:31.520Z,11.50
2019-04-14T16:18:20.788Z,11.83
2019-04-14T16:20:50.921Z,11.87
2019-04-14T16:23:25.294Z,11.23
2019-04-14T16:26:08.799Z,11.40
2019-04-14T16:29:04.648Z,11.20
2019-04-14T16:32:03.958Z,11.47
2019-04-14T16:35:12.439Z,12.10
2019-04-14T16:37:43.952Z,11.30
2019-04-14T16:40:19.751Z,11.63
2019-04-14T16:42:49.995Z,12.10
2019-04-14T16:45:25.130Z,11.80
2019-04-14T16:47:56.191Z,12.17
2019-04-14T16:50:25.918Z,11.47
2019-04-14T16:53:13.793Z,12.50
2019-04-14T16:56:10.256Z,11.87
2019-04-14T16:58:51.167Z,11.77
2019-04-14T17:01:33.352Z,12.30
2019-04-14T17:04:12.183Z,11.87
2019-04-14T17:06:47.747Z,11.97
2019-04-14T17:09:21.731Z,12.07
2019-04-14T17:11:54.597Z,11.77
2019-04-14T17:14:35.978Z,12.00
2019-04-14T17:17:22.684Z,12.03
2019-04-14T17:20:08.280Z,12.20
2019-04-14T17:23:17.180Z,12.10
2019-04-14T17:26:02.249Z,11.00
2019-04-14T17:28:48.189Z,12.37
2019-04-14T17:31:42.121Z,13.13
2019-04-14T17:34:19.747Z,12.17
2019-04-14T17:37:04.457Z,12.63
2019-04-14T17:39:42.387Z,12.23
2019-04-14T17:42:23.002Z,13.20
2019-04-14T17:45:19.339Z,13.17
2019-04-14T17:48:04.361Z,13.30
2019-04-14T17:50:54.124Z,13.60
2019-04-14T17:53:57.992Z,14.63
2019-04-14T17:56:44.648Z,13.50
2019-04-14T17:59:23.868Z,13.50
2019-04-14T18:02:28.401Z,15.07
2019-04-14T18:05:06.201Z,14.00
2019-04-14T18:07:57.692Z,13.07
2019-04-14T18:10:42.580Z,13.40
2019-04-14T18:13:21.127Z,13.90
2019-04-14T18:16:26.022Z,14.00
2019-04-14T18:19:22.473Z,14.37
2019-04-14T18:21:55.218Z,14.07
2019-04-14T18:24:25.354Z,13.07
2019-04-14T18:26:57.435Z,13.40
2019-04-14T18:29:35.550Z,13.33
2019-04-14T18:32:20.682Z,13.50
2019-04-14T18:35:20.838Z,13.63
2019-04-14T18:38:24.831Z,13.57
2019-04-14T18:41:03.485Z,12.47
2019-04-14T18:43:56.298Z,12.27
2019-04-14T18:46:44.288Z,12.73
2019-04-14T18:49:28.534Z,13.77
2019-04-14T18:52:20.429Z,13.07
2019-04-14T18:55:17.010Z,13.40
2019-04-14T18:58:06.587Z,12.77
2019-04-14T19:00:49.565Z,13.00
2019-04-14T19:03:24.186Z,12.27
2019-04-14T19:05:54.231Z,12.13
2019-04-14T19:08:24.110Z,12.90
2019-04-14T19:11:13.240Z,11.97
2019-04-14T19:13:44.544Z,11.97
2019-04-14T19:16:38.587Z,12.00
2019-04-14T19:19:01.663Z,12.10
2019-04-14T19:21:35.394Z,12.67
2019-04-14T19:24:11.377Z,12.60
2019-04-14T19:26:47.634Z,12.27
2019-04-14T19:29:27.596Z,13.03
2019-04-14T19:32:14.532Z,12.27
2019-04-14T19:34:44.272Z,12.77
2019-04-14T19:37:13.944Z,12.47
2019-04-14T19:39:43.717Z,11.73
2019-04-14T19:42:14.457Z,13.50
2019-04-14T19:44:46.322Z,12.70
2019-04-14T19:47:18.887Z,11.93
2019-04-14T19:50:05.547Z,12.33
2019-04-14T19:52:39.370Z,12.00
2019-04-14T19:55:20.219Z,11.90
2019-04-14T19:57:43.753Z,12.37
2019-04-14T20:00:17.655Z,12.80
2019-04-14T20:02:55.066Z,12.33
2019-04-14T20:05:31.978Z,11.77
2019-04-14T20:08:02.180Z,13.03
2019-04-14T20:10:37.851Z,12.70
2019-04-14T20:13:09.484Z,12.37
2019-04-14T20:15:58.258Z,12.00
2019-04-14T20:18:41.045Z,12.63
2019-04-14T20:21:46.024Z,12.03
2019-04-14T20:24:35.728Z,11.87
2019-04-14T20:27:15.330Z,12.10
2019-04-14T20:29:49.602Z,12.03
2019-04-14T20:32:25.932Z,12.60
2019-04-14T20:34:55.993Z,12.27
2019-04-14T20:37:29.450Z,12.97
2019-04-14T20:40:00.027Z,12.40
2019-04-14T20:42:32.965Z,12.53
2019-04-14T20:45:06.923Z,12.17
2019-04-14T20:47:41.565Z,12.23
2019-04-14T20:50:16.604Z,11.90
2019-04-14T20:52:46.958Z,11.13
2019-04-14T20:55:25.028Z,12.40
2019-04-14T20:57:56.604Z,12.13
2019-04-14T21:00:35.848Z,12.37
2019-04-14T21:03:48.167Z,12.27
2019-04-14T21:06:35.498Z,11.33
2019-04-14T21:09:19.400Z,12.93
2019-04-14T21:12:00.059Z,12.13
2019-04-14T21:14:56.067Z,11.70
2019-04-14T21:17:37.424Z,12.73
2019-04-14T21:20:21.613Z,12.53
2019-04-14T21:22:59.093Z,12.10
2019-04-14T21:26:00.810Z,12.73
2019-04-14T21:28:53.227Z,13.40
2019-04-14T21:31:39.836Z,12.70
2019-04-14T21:34:16.258Z,12.73
2019-04-14T21:37:05.118Z,13.03
2019-04-14T21:39:48.753Z,12.93
2019-04-14T21:42:19.518Z,11.60
2019-04-14T21:44:51.359Z,12.80
2019-04-14T21:47:23.527Z,12.93
2019-04-14T21:49:56.982Z,12.27
2019-04-14T21:52:57.289Z,12.23
2019-04-14T21:55:31.538Z,13.37
2019-04-14T21:58:36.178Z,13.60
2019-04-14T22:01:51.529Z,13.13
2019-04-14T22:04:51.180Z,12.20
2019-04-14T22:07:46.855Z,12.57
2019-04-14T22:10:37.319Z,13.33
2019-04-14T22:13:09.421Z,13.53
2019-04-14T22:15:39.298Z,13.50
2019-04-14T22:18:09.698Z,13.20
2019-04-14T22:20:50.351Z,13.50
2019-04-14T22:23:27.515Z,13.77
2019-04-14T22:26:00.607Z,13.43
2019-04-14T22:28:31.650Z,14.33
2019-04-14T22:31:01.351Z,14.10
2019-04-14T22:33:30.938Z,14.23
2019-04-14T22:36:02.760Z,14.30
2019-04-14T22:38:35.291Z,13.83
2019-04-14T22:41:06.897Z,14.13
2019-04-14T22:43:38.017Z,13.30
2019-04-14T22:46:12.123Z,13.90
2019-04-14T22:48:42.265Z,13.50
2019-04-14T22:51:13.980Z,14.20
2019-04-14T22:53:51.591Z,12.70
2019-04-14T22:56:21.248Z,14.43
2019-04-14T22:58:51.029Z,13.60
2019-04-14T23:01:29.587Z,14.30
2019-04-14T23:04:17.203Z,14.17
2019-04-14T23:07:10.929Z,12.73
2019-04-14T23:10:00.157Z,13.37
2019-04-14T23:12:48.515Z,13.80
2019-04-14T23:15:35.815Z,13.10
2019-04-14T23:18:22.376Z,13.90
2019-04-14T23:21:10.006Z,12.70
2019-04-14T23:23:58.159Z,13.10
2019-04-14T23:26:29.915Z,12.47
2019-04-14T23:29:04.923Z,12.03
2019-04-14T23:31:36.736Z,13.37
2019-04-14T23:34:07.175Z,11.77
2019-04-14T23:36:43.069Z,11.30
2019-04-14T23:39:17.153Z,12.23
2019-04-14T23:41:47.345Z,12.23
2019-04-14T23:44:22.628Z,11.80
2019-04-14T23:46:52.153Z,11.93
2019-04-14T23:49:21.716Z,12.63
2019-04-14T23:51:52.842Z,11.53
2019-04-14T23:54:22.575Z,12.13
2019-04-14T23:57:04.460Z,10.93
2019-04-14T23:59:25.777Z,11.47
